createdAt,value
2023-01-07T00:01:58.704Z,12.40
2023-01-07T00:07:02.667Z,13.50
2023-01-07T00:12:06.322Z,11.10
2023-01-07T00:17:08.027Z,9.90
2023-01-07T00:22:09.741Z,8.00
2023-01-07T00:27:11.573Z,6.90
2023-01-07T00:32:15.715Z,7.30
2023-01-07T00:37:36.426Z,7.50
2023-01-07T00:43:17.251Z,7.90
2023-01-07T00:48:25.504Z,7.70
2023-01-07T00:53:30.250Z,6.70
2023-01-07T00:58:32.118Z,7.70
2023-01-07T01:03:34.357Z,9.70
2023-01-07T01:08:38.028Z,16.10
2023-01-07T01:13:40.343Z,19.90
2023-01-07T01:18:43.010Z,17.20
2023-01-07T01:23:44.823Z,14.10
2023-01-07T01:28:46.563Z,12.90
2023-01-07T01:33:49.090Z,12.80
2023-01-07T01:38:51.940Z,13.90
2023-01-07T01:43:53.780Z,11.10
2023-01-07T01:49:24.090Z,17.60
2023-01-07T01:54:27.848Z,14.30
2023-01-07T01:59:34.731Z,14.00
2023-01-07T02:04:38.618Z,16.60
2023-01-07T02:09:40.521Z,13.90
2023-01-07T02:15:24.565Z,19.00
2023-01-07T02:20:39.514Z,16.80
2023-01-07T02:26:06.601Z,12.30
2023-01-07T02:31:37.360Z,24.50
2023-01-07T02:36:53.105Z,31.10
2023-01-07T02:41:59.713Z,30.80
2023-01-07T02:47:14.932Z,29.10
2023-01-07T02:52:26.983Z,26.20
2023-01-07T02:57:41.008Z,26.90
2023-01-07T03:02:59.397Z,29.10
2023-01-07T03:08:10.349Z,35.90
2023-01-07T03:13:29.764Z,32.50
2023-01-07T03:18:40.301Z,26.40
2023-01-07T03:23:48.132Z,25.60
2023-01-07T03:28:53.238Z,23.90
2023-01-07T03:34:03.008Z,24.90
2023-01-07T03:39:07.326Z,24.30
2023-01-07T03:44:10.259Z,19.70
2023-01-07T03:49:12.440Z,18.30
2023-01-07T03:54:14.506Z,19.40
2023-01-07T03:59:16.319Z,19.70
2023-01-07T04:04:18.226Z,17.80
2023-01-07T04:09:21.912Z,24.40
2023-01-07T04:14:25.027Z,29.70
2023-01-07T04:19:26.810Z,23.20
2023-01-07T04:24:28.683Z,23.90
2023-01-07T04:29:31.067Z,26.20
2023-01-07T04:34:32.927Z,28.90
2023-01-07T04:39:35.148Z,33.30
2023-01-07T04:44:37.766Z,57.20
2023-01-07T04:49:40.682Z,34.70
2023-01-07T04:54:42.611Z,35.00
2023-01-07T04:59:45.324Z,30.70
2023-01-07T05:04:47.392Z,36.30
2023-01-07T05:09:50.501Z,45.80
2023-01-07T05:14:53.228Z,103.70
2023-01-07T05:19:55.057Z,56.60
2023-01-07T05:24:57.070Z,32.50
2023-01-07T05:30:00.045Z,27.00
2023-01-07T05:35:02.143Z,34.10
2023-01-07T05:40:05.246Z,32.70
2023-01-07T05:45:07.938Z,24.00
2023-01-07T05:50:09.802Z,24.80
2023-01-07T05:55:11.489Z,25.00
2023-01-07T06:00:14.486Z,31.20
2023-01-07T06:05:16.330Z,54.40
2023-01-07T06:10:18.113Z,40.60
2023-01-07T06:15:19.787Z,40.10
2023-01-07T06:20:21.519Z,43.80
2023-01-07T06:25:23.249Z,44.40
2023-01-07T06:30:25.685Z,33.30
2023-01-07T06:35:27.376Z,29.10
2023-01-07T06:40:29.192Z,30.80
2023-01-07T06:45:30.904Z,30.50
2023-01-07T06:50:32.614Z,34.10
2023-01-07T06:55:34.337Z,35.40
2023-01-07T07:00:35.936Z,35.40
2023-01-07T07:05:37.695Z,41.20
2023-01-07T07:10:39.406Z,53.70
2023-01-07T07:15:41.222Z,73.00
2023-01-07T07:20:42.996Z,55.70
2023-01-07T07:25:44.911Z,33.20
2023-01-07T07:30:48.012Z,38.70
2023-01-07T07:35:50.139Z,30.60
2023-01-07T07:40:51.944Z,52.40
2023-01-07T07:45:53.615Z,61.30
2023-01-07T07:50:55.452Z,57.30
2023-01-07T07:55:57.293Z,52.80
2023-01-07T08:00:59.047Z,59.50
2023-01-07T08:06:00.788Z,64.00
2023-01-07T08:11:04.033Z,38.00
2023-01-07T08:16:06.206Z,33.10
2023-01-07T08:21:07.951Z,31.80
2023-01-07T08:26:09.677Z,30.00
2023-01-07T08:31:11.830Z,26.50
2023-01-07T08:36:29.062Z,29.70
2023-01-07T08:41:30.867Z,32.40
2023-01-07T08:46:32.564Z,25.40
2023-01-07T08:51:34.328Z,24.50
2023-01-07T08:56:36.069Z,24.40
2023-01-07T09:01:37.866Z,23.20
2023-01-07T09:06:39.845Z,26.70
2023-01-07T09:11:41.558Z,24.20
2023-01-07T09:16:43.352Z,29.30
2023-01-07T09:21:45.176Z,26.80
2023-01-07T09:26:46.878Z,27.00
2023-01-07T09:31:48.639Z,25.90
2023-01-07T09:36:50.457Z,22.60
2023-01-07T09:42:04.466Z,21.50
2023-01-07T09:47:08.987Z,18.80
2023-01-07T09:52:30.315Z,19.70
2023-01-07T09:57:54.665Z,19.70
2023-01-07T10:03:49.490Z,24.10
2023-01-07T10:09:02.650Z,24.10
2023-01-07T10:14:25.870Z,17.70
2023-01-07T10:19:39.792Z,11.80
2023-01-07T10:24:47.116Z,16.60
2023-01-07T10:29:55.164Z,14.70
2023-01-07T10:34:58.271Z,11.00
2023-01-07T10:40:12.427Z,12.20
2023-01-07T10:45:19.903Z,16.20
2023-01-07T10:50:48.519Z,10.70
2023-01-07T10:56:02.029Z,11.30
2023-01-07T11:01:05.664Z,9.30
2023-01-07T11:06:14.308Z,9.10
2023-01-07T11:11:20.179Z,10.30
2023-01-07T11:16:28.038Z,11.70
2023-01-07T11:21:42.792Z,9.00
2023-01-07T11:26:46.805Z,9.60
2023-01-07T11:32:00.758Z,10.30
2023-01-07T11:37:04.176Z,10.60
2023-01-07T11:42:25.893Z,10.20
2023-01-07T11:47:27.704Z,10.30
2023-01-07T11:52:29.524Z,11.80
2023-01-07T11:57:31.253Z,10.60
2023-01-07T12:02:33.016Z,18.90
2023-01-07T12:07:35.087Z,14.40
2023-01-07T12:12:40.114Z,13.20
2023-01-07T12:17:45.263Z,15.70
2023-01-07T12:22:58.451Z,17.60
2023-01-07T12:28:12.374Z,14.60
2023-01-07T12:33:29.522Z,14.50
2023-01-07T12:38:53.352Z,12.50
2023-01-07T12:44:21.261Z,12.70
2023-01-07T12:49:42.357Z,10.00
2023-01-07T12:55:04.445Z,10.40
2023-01-07T13:00:26.594Z,10.80
2023-01-07T13:05:37.534Z,10.60
2023-01-07T13:10:42.551Z,21.70
2023-01-07T13:15:44.252Z,10.10
2023-01-07T13:21:04.211Z,10.10
2023-01-07T13:26:14.997Z,11.90
2023-01-07T13:31:42.565Z,11.00
2023-01-07T13:36:58.382Z,9.90
2023-01-07T13:42:18.398Z,9.10
2023-01-07T13:47:24.847Z,9.10
2023-01-07T13:52:30.469Z,13.30
2023-01-07T13:57:32.207Z,14.80
2023-01-07T14:03:03.450Z,14.10
2023-01-07T14:08:05.477Z,16.70
2023-01-07T14:13:25.546Z,13.20
2023-01-07T14:18:32.965Z,12.80
2023-01-07T14:23:44.664Z,15.50
2023-01-07T14:28:55.662Z,15.60
2023-01-07T14:34:05.146Z,16.70
2023-01-07T14:39:36.905Z,16.40
2023-01-07T14:44:38.677Z,15.80
2023-01-07T14:49:57.155Z,15.40
2023-01-07T14:55:04.699Z,15.30
2023-01-07T15:00:20.589Z,14.60
2023-01-07T15:05:45.191Z,15.90
2023-01-07T15:11:09.962Z,22.90
2023-01-07T15:16:12.447Z,15.70
2023-01-07T15:21:36.542Z,17.90
2023-01-07T15:27:06.177Z,16.80
2023-01-07T15:32:22.678Z,24.20
2023-01-07T15:37:24.815Z,34.10
2023-01-07T15:42:27.766Z,44.10
2023-01-07T15:47:41.263Z,43.50
2023-01-07T15:52:52.460Z,39.20
2023-01-07T15:58:00.556Z,39.30
2023-01-07T16:03:04.155Z,38.80
2023-01-07T16:08:06.215Z,39.00
2023-01-07T16:13:20.740Z,43.60
2023-01-07T16:18:22.844Z,44.20
2023-01-07T16:23:32.706Z,44.10
2023-01-07T16:28:41.107Z,54.90
2023-01-07T16:33:44.047Z,42.40
2023-01-07T16:38:49.700Z,39.70
2023-01-07T16:43:54.250Z,47.90
2023-01-07T16:49:28.784Z,46.20
2023-01-07T16:54:34.456Z,46.40
2023-01-07T16:59:42.337Z,90.00
2023-01-07T17:04:44.038Z,112.50
2023-01-07T17:09:45.721Z,113.90
2023-01-07T17:14:48.422Z,54.50
2023-01-07T17:20:01.043Z,52.50
2023-01-07T17:25:15.707Z,62.30
2023-01-07T17:30:20.658Z,59.70
2023-01-07T17:35:24.502Z,62.60
2023-01-07T17:40:26.377Z,63.30
2023-01-07T17:45:29.232Z,86.00
2023-01-07T17:50:40.113Z,71.40
2023-01-07T17:55:42.037Z,56.40
2023-01-07T18:00:43.794Z,59.40
2023-01-07T18:05:45.835Z,60.00
2023-01-07T18:11:07.598Z,49.40
2023-01-07T18:16:14.254Z,66.70
2023-01-07T18:21:16.309Z,57.40
2023-01-07T18:26:18.990Z,54.40
2023-01-07T18:31:21.150Z,52.00
2023-01-07T18:36:23.510Z,57.00
2023-01-07T18:41:25.541Z,61.20
2023-01-07T18:46:27.295Z,63.70
2023-01-07T18:51:29.179Z,73.70
2023-01-07T18:56:31.062Z,93.50
2023-01-07T19:01:34.138Z,107.50
2023-01-07T19:06:36.113Z,100.80
2023-01-07T19:11:38.643Z,99.20
2023-01-07T19:16:40.706Z,90.10
2023-01-07T19:21:43.677Z,84.20
2023-01-07T19:26:46.969Z,74.20
2023-01-07T19:31:48.817Z,73.60
2023-01-07T19:36:50.612Z,76.30
2023-01-07T19:41:52.430Z,70.10
2023-01-07T19:46:54.071Z,67.80
2023-01-07T20:01:59.228Z,77.30
2023-01-07T20:07:01.376Z,76.90
2023-01-07T20:12:03.162Z,75.80
2023-01-07T20:17:05.031Z,73.20
2023-01-07T20:22:06.781Z,84.20
2023-01-07T20:27:08.463Z,79.80
2023-01-07T20:37:12.568Z,70.80
2023-01-07T20:42:14.154Z,70.80
2023-01-07T20:47:16.142Z,66.00
2023-01-07T20:52:18.083Z,67.70
2023-01-07T20:57:19.785Z,75.00
2023-01-07T21:02:22.468Z,71.40
2023-01-07T21:07:24.390Z,72.90
2023-01-07T21:12:26.037Z,74.10
2023-01-07T23:06:13.079Z,74.30
2023-01-07T23:11:33.417Z,70.60
2023-01-07T23:16:36.805Z,70.50
2023-01-07T23:21:43.663Z,61.70
2023-01-07T23:26:47.876Z,63.60
2023-01-07T23:31:49.820Z,67.60
2023-01-07T23:36:51.733Z,67.00
2023-01-07T23:41:53.455Z,63.50
2023-01-07T23:46:55.229Z,59.00
2023-01-07T23:51:57.132Z,56.90
2023-01-07T23:56:58.835Z,63.50
